createdAt,value
2019-04-03T00:01:10.418Z,11.12
2019-04-03T00:03:43.180Z,12.95
2019-04-03T00:06:16.069Z,12.78
2019-04-03T00:08:49.132Z,12.40
2019-04-03T00:11:21.901Z,11.97
2019-04-03T00:13:54.776Z,13.83
2019-04-03T00:16:27.623Z,11.30
2019-04-03T00:19:00.468Z,12.05
2019-04-03T00:21:33.305Z,12.20
2019-04-03T00:24:06.152Z,13.13
2019-04-03T00:26:39.082Z,13.00
2019-04-03T00:29:11.985Z,11.73
2019-04-03T00:31:45.014Z,16.52
2019-04-03T00:34:17.948Z,14.93
2019-04-03T00:36:52.926Z,14.63
2019-04-03T00:39:25.490Z,13.85
2019-04-03T00:41:58.296Z,14.15
2019-04-03T00:44:31.205Z,13.60
2019-04-03T00:47:04.004Z,13.65
2019-04-03T00:49:37.098Z,14.00
2019-04-03T00:52:10.121Z,13.30
2019-04-03T00:54:43.935Z,14.13
2019-04-03T00:57:16.705Z,16.65
2019-04-03T00:59:49.555Z,14.18
2019-04-03T01:02:22.401Z,15.20
2019-04-03T01:04:56.503Z,12.82
2019-04-03T01:07:29.847Z,14.20
2019-04-03T01:10:03.220Z,14.35
2019-04-03T01:12:36.659Z,14.10
2019-04-03T01:15:10.827Z,11.40
2019-04-03T01:17:45.281Z,13.58
2019-04-03T01:20:18.536Z,13.78
2019-04-03T01:22:51.802Z,12.70
2019-04-03T01:25:24.805Z,13.48
2019-04-03T01:27:57.635Z,13.65
2019-04-03T01:30:30.596Z,12.65
2019-04-03T01:33:04.862Z,13.50
2019-04-03T01:35:37.622Z,12.68
2019-04-03T01:38:10.802Z,14.25
2019-04-03T01:40:43.764Z,13.83
2019-04-03T01:43:16.531Z,13.32
2019-04-03T01:45:49.409Z,16.32
2019-04-03T01:48:22.206Z,13.80
2019-04-03T01:50:55.023Z,13.58
2019-04-03T01:53:27.842Z,14.90
2019-04-03T01:56:00.621Z,15.15
2019-04-03T01:58:34.647Z,14.63
2019-04-03T02:01:08.557Z,15.50
2019-04-03T02:03:42.632Z,13.05
2019-04-03T02:06:15.529Z,12.85
2019-04-03T02:08:48.549Z,12.85
2019-04-03T02:11:21.337Z,12.80
2019-04-03T02:13:54.127Z,12.82
2019-04-03T02:16:27.005Z,13.98
2019-04-03T02:18:59.964Z,13.90
2019-04-03T02:21:32.851Z,15.00
2019-04-03T02:24:06.475Z,14.58
2019-04-03T02:26:39.293Z,15.48
2019-04-03T02:29:12.168Z,15.10
2019-04-03T02:31:45.343Z,13.40
2019-04-03T02:34:18.186Z,14.25
2019-04-03T02:36:51.162Z,13.45
2019-04-03T02:39:27.394Z,14.85
2019-04-03T02:41:58.527Z,14.63
2019-04-03T02:44:31.372Z,15.08
2019-04-03T02:47:05.562Z,14.78
2019-04-03T02:49:41.638Z,14.05
2019-04-03T02:52:13.356Z,14.03
2019-04-03T02:54:47.136Z,13.65
2019-04-03T02:57:20.022Z,14.18
2019-04-03T02:59:53.160Z,14.40
2019-04-03T03:02:26.055Z,15.25
2019-04-03T03:04:59.016Z,14.28
2019-04-03T03:07:35.748Z,13.13
2019-04-03T03:10:06.791Z,14.23
2019-04-03T03:12:41.052Z,15.45
2019-04-03T03:15:15.042Z,14.98
2019-04-03T03:17:48.572Z,15.20
2019-04-03T03:20:25.473Z,14.47
2019-04-03T03:22:59.640Z,15.13
2019-04-03T03:25:33.809Z,14.63
2019-04-03T03:28:07.365Z,14.75
2019-04-03T03:30:46.798Z,15.30
2019-04-03T03:33:33.644Z,15.85
2019-04-03T03:35:52.008Z,14.65
2019-04-03T03:38:27.798Z,17.02
2019-04-03T03:41:01.047Z,21.55
2019-04-03T03:43:37.080Z,19.40
2019-04-03T03:46:09.115Z,25.37
2019-04-03T03:48:44.866Z,19.00
2019-04-03T03:51:18.589Z,16.00
2019-04-03T03:53:52.196Z,17.35
2019-04-03T03:56:25.288Z,15.58
2019-04-03T03:58:58.865Z,14.60
2019-04-03T04:01:32.798Z,14.63
2019-04-03T04:04:06.002Z,15.30
2019-04-03T04:06:39.411Z,15.38
2019-04-03T04:09:15.655Z,14.78
2019-04-03T04:11:47.464Z,14.45
2019-04-03T04:14:22.836Z,16.30
2019-04-03T04:16:55.071Z,18.40
2019-04-03T04:19:30.516Z,16.87
2019-04-03T04:22:03.540Z,16.17
2019-04-03T04:24:36.879Z,16.12
2019-04-03T04:27:09.735Z,17.87
2019-04-03T04:29:43.308Z,18.65
2019-04-03T04:32:16.113Z,18.87
2019-04-03T04:34:50.221Z,18.70
2019-04-03T04:37:26.034Z,22.67
2019-04-03T04:39:59.707Z,22.85
2019-04-03T04:42:34.359Z,25.68
2019-04-03T04:45:07.380Z,25.48
2019-04-03T04:47:40.181Z,20.45
2019-04-03T04:50:13.195Z,19.32
2019-04-03T04:52:46.007Z,17.42
2019-04-03T04:55:20.168Z,19.43
2019-04-03T04:57:53.195Z,17.37
2019-04-03T05:00:26.441Z,16.85
2019-04-03T05:03:02.009Z,17.80
2019-04-03T05:05:34.982Z,18.75
2019-04-03T05:08:07.759Z,19.12
2019-04-03T05:10:40.747Z,20.00
2019-04-03T05:13:15.863Z,20.35
2019-04-03T05:15:48.479Z,19.40
2019-04-03T05:18:21.422Z,16.50
2019-04-03T05:20:54.242Z,20.00
2019-04-03T05:23:27.626Z,20.10
2019-04-03T05:26:01.900Z,18.27
2019-04-03T05:28:35.317Z,20.37
2019-04-03T05:31:08.901Z,20.92
2019-04-03T05:33:42.431Z,20.30
2019-04-03T05:36:17.728Z,17.85
2019-04-03T05:38:51.029Z,17.15
2019-04-03T05:41:27.652Z,17.30
2019-04-03T05:44:00.097Z,17.48
2019-04-03T05:46:36.716Z,15.85
2019-04-03T05:49:10.727Z,17.45
2019-04-03T05:51:42.526Z,15.58
2019-04-03T05:54:15.474Z,17.40
2019-04-03T05:56:51.098Z,16.23
2019-04-03T05:59:23.158Z,18.50
2019-04-03T06:01:55.997Z,19.07
2019-04-03T06:04:28.800Z,21.05
2019-04-03T06:07:01.908Z,18.67
2019-04-03T06:09:34.769Z,16.95
2019-04-03T06:12:09.099Z,17.07
2019-04-03T06:14:42.377Z,17.80
2019-04-03T06:17:15.260Z,16.52
2019-04-03T06:19:49.078Z,16.25
2019-04-03T06:22:22.192Z,16.12
2019-04-03T06:24:56.367Z,17.15
2019-04-03T06:27:29.632Z,16.80
2019-04-03T06:30:02.915Z,16.93
2019-04-03T06:32:35.950Z,14.35
2019-04-03T06:35:08.993Z,15.78
2019-04-03T06:37:41.787Z,16.10
2019-04-03T06:40:14.968Z,16.35
2019-04-03T06:42:47.977Z,15.98
2019-04-03T06:45:21.844Z,16.40
2019-04-03T06:47:54.778Z,17.12
2019-04-03T06:50:27.498Z,17.05
2019-04-03T06:53:00.258Z,17.02
2019-04-03T06:55:33.191Z,15.85
2019-04-03T06:58:07.926Z,14.78
2019-04-03T07:00:40.715Z,15.43
2019-04-03T07:03:13.850Z,14.83
2019-04-03T07:05:46.791Z,16.02
2019-04-03T07:08:30.110Z,15.25
2019-04-03T07:10:55.311Z,14.93
2019-04-03T07:13:29.747Z,17.05
2019-04-03T07:16:03.118Z,17.48
2019-04-03T07:18:37.321Z,19.32
2019-04-03T07:21:10.588Z,18.75
2019-04-03T07:23:43.815Z,16.12
2019-04-03T07:26:19.506Z,15.72
2019-04-03T07:28:55.414Z,15.55
2019-04-03T07:31:28.499Z,14.78
2019-04-03T07:34:03.268Z,13.95
2019-04-03T07:36:36.013Z,14.60
2019-04-03T07:39:11.179Z,13.58
2019-04-03T07:41:44.340Z,14.45
2019-04-03T07:44:17.186Z,14.40
2019-04-03T07:46:50.135Z,14.73
2019-04-03T07:49:22.969Z,14.38
2019-04-03T07:51:55.808Z,15.00
2019-04-03T07:54:29.004Z,12.58
2019-04-03T07:57:01.902Z,13.95
2019-04-03T07:59:35.912Z,13.20
2019-04-03T08:02:12.093Z,13.80
2019-04-03T08:04:43.624Z,14.73
2019-04-03T08:07:16.545Z,13.03
2019-04-03T08:09:49.525Z,15.25
2019-04-03T08:12:22.370Z,13.58
2019-04-03T08:14:55.418Z,14.65
2019-04-03T08:17:28.317Z,14.10
2019-04-03T08:20:01.396Z,12.30
2019-04-03T08:22:34.205Z,13.60
2019-04-03T08:25:10.694Z,13.80
2019-04-03T08:27:42.401Z,12.23
2019-04-03T08:30:16.054Z,10.72
2019-04-03T08:32:49.317Z,12.93
2019-04-03T08:35:23.740Z,12.58
2019-04-03T08:37:57.458Z,10.82
2019-04-03T08:40:30.261Z,14.15
2019-04-03T08:43:03.517Z,12.20
2019-04-03T08:45:38.410Z,13.55
2019-04-03T08:48:10.833Z,11.88
2019-04-03T08:50:43.679Z,12.58
2019-04-03T08:53:16.434Z,10.93
2019-04-03T08:55:49.628Z,11.43
2019-04-03T08:58:25.422Z,13.90
2019-04-03T09:00:57.126Z,12.53
2019-04-03T09:03:30.136Z,12.98
2019-04-03T09:06:03.143Z,13.00
2019-04-03T09:08:36.076Z,12.10
2019-04-03T09:11:08.964Z,10.72
2019-04-03T09:13:41.810Z,10.48
2019-04-03T09:16:14.575Z,13.50
2019-04-03T09:18:47.515Z,10.88
2019-04-03T09:21:20.626Z,11.73
2019-04-03T09:23:55.213Z,12.53
2019-04-03T09:26:28.210Z,11.97
2019-04-03T09:29:01.215Z,12.73
2019-04-03T09:31:34.218Z,13.50
2019-04-03T09:34:07.048Z,13.88
2019-04-03T09:36:39.830Z,10.45
2019-04-03T09:39:14.609Z,11.50
2019-04-03T09:41:48.861Z,12.88
2019-04-03T09:44:24.401Z,10.20
2019-04-03T09:46:57.393Z,10.45
2019-04-03T09:49:30.184Z,10.93
2019-04-03T09:52:03.131Z,10.93
2019-04-03T09:54:36.206Z,14.03
2019-04-03T09:57:09.030Z,13.20
2019-04-03T09:59:41.937Z,15.30
2019-04-03T10:02:14.956Z,13.40
2019-04-03T10:04:48.889Z,12.33
2019-04-03T10:07:21.824Z,13.58
2019-04-03T10:09:54.891Z,14.28
2019-04-03T10:12:27.990Z,12.98
2019-04-03T10:15:00.931Z,12.70
2019-04-03T10:17:35.164Z,14.23
2019-04-03T10:20:09.513Z,12.58
2019-04-03T10:22:42.386Z,13.28
2019-04-03T10:25:15.590Z,13.90
2019-04-03T10:27:48.916Z,13.58
2019-04-03T10:30:23.227Z,12.63
2019-04-03T10:32:56.949Z,13.98
2019-04-03T10:35:30.648Z,12.70
2019-04-03T10:38:03.491Z,13.60
2019-04-03T10:40:36.593Z,14.33
2019-04-03T10:43:10.786Z,13.45
2019-04-03T10:45:45.235Z,15.13
2019-04-03T10:48:18.207Z,12.90
2019-04-03T10:50:51.126Z,12.90
2019-04-03T10:53:26.025Z,13.53
2019-04-03T10:55:59.790Z,14.53
2019-04-03T10:58:33.480Z,11.28
2019-04-03T11:01:06.858Z,10.48
2019-04-03T11:03:40.005Z,11.78
2019-04-03T11:06:12.970Z,11.65
2019-04-03T11:08:45.846Z,11.43
2019-04-03T11:11:19.203Z,12.03
2019-04-03T11:13:52.163Z,11.53
2019-04-03T11:16:25.302Z,13.75
2019-04-03T11:19:02.709Z,15.50
2019-04-03T11:21:33.060Z,14.35
2019-04-03T11:24:07.157Z,13.38
2019-04-03T11:26:40.420Z,11.20
2019-04-03T11:29:13.810Z,12.00
2019-04-03T11:31:46.861Z,13.03
2019-04-03T11:34:19.943Z,13.22
2019-04-03T11:36:52.763Z,12.43
2019-04-03T11:39:25.560Z,12.68
2019-04-03T11:41:58.319Z,13.98
2019-04-03T11:44:32.577Z,11.22
2019-04-03T11:47:05.956Z,13.28
2019-04-03T11:49:39.034Z,13.15
2019-04-03T11:52:12.076Z,12.20
2019-04-03T11:54:45.031Z,12.70
2019-04-03T11:57:18.071Z,11.48
2019-04-03T11:59:51.241Z,12.47
2019-04-03T12:02:25.527Z,13.98
2019-04-03T12:04:58.815Z,11.55
2019-04-03T12:07:32.036Z,11.85
2019-04-03T12:10:04.914Z,11.73
2019-04-03T12:12:38.116Z,13.00
2019-04-03T12:15:11.933Z,11.33
2019-04-03T12:17:45.825Z,13.35
2019-04-03T12:20:18.794Z,13.15
2019-04-03T12:22:52.011Z,10.72
2019-04-03T12:25:26.389Z,11.78
2019-04-03T12:27:59.917Z,10.90
2019-04-03T12:30:33.799Z,13.38
2019-04-03T12:33:06.801Z,9.63
2019-04-03T12:35:42.236Z,12.25
2019-04-03T12:38:14.127Z,11.78
2019-04-03T12:40:47.030Z,12.13
2019-04-03T12:43:19.964Z,11.40
2019-04-03T12:45:52.760Z,13.10
2019-04-03T12:48:27.874Z,13.78
2019-04-03T12:51:00.382Z,11.97
2019-04-03T12:53:33.525Z,12.23
2019-04-03T12:56:06.613Z,13.65
2019-04-03T12:58:39.456Z,13.00
2019-04-03T13:01:13.419Z,11.08
2019-04-03T13:03:46.485Z,13.83
2019-04-03T13:06:19.273Z,12.43
2019-04-03T13:08:52.162Z,13.25
2019-04-03T13:11:24.999Z,11.38
2019-04-03T13:13:59.467Z,11.20
2019-04-03T13:16:32.504Z,12.85
2019-04-03T13:19:05.251Z,12.20
2019-04-03T13:21:39.809Z,14.63
2019-04-03T13:24:12.770Z,14.45
2019-04-03T13:26:47.222Z,14.30
2019-04-03T13:29:21.641Z,10.85
2019-04-03T13:31:54.989Z,14.40
2019-04-03T13:34:31.091Z,12.28
2019-04-03T13:37:03.142Z,12.58
2019-04-03T13:39:36.087Z,11.43
2019-04-03T13:42:08.993Z,10.90
2019-04-03T13:44:41.902Z,11.93
2019-04-03T13:47:14.799Z,11.53
2019-04-03T13:49:50.094Z,11.40
2019-04-03T13:52:22.410Z,13.30
2019-04-03T13:54:57.721Z,12.53
2019-04-03T13:57:29.690Z,10.38
2019-04-03T14:00:16.346Z,11.43
2019-04-03T14:02:38.742Z,10.98
2019-04-03T14:05:12.012Z,12.47
2019-04-03T14:07:48.233Z,11.05
2019-04-03T14:10:21.024Z,11.50
2019-04-03T14:12:54.276Z,10.90
2019-04-03T14:15:27.233Z,10.78
2019-04-03T14:18:00.035Z,11.33
2019-04-03T14:20:33.979Z,9.68
2019-04-03T14:23:06.798Z,12.35
2019-04-03T14:25:39.853Z,11.73
2019-04-03T14:28:12.924Z,11.73
2019-04-03T14:30:47.045Z,11.80
2019-04-03T14:33:20.293Z,12.20
2019-04-03T14:35:54.839Z,9.48
2019-04-03T14:38:31.003Z,11.15
2019-04-03T14:41:04.654Z,10.85
2019-04-03T14:43:37.408Z,10.18
2019-04-03T14:46:10.664Z,9.80
2019-04-03T14:48:43.729Z,12.55
2019-04-03T14:51:17.006Z,9.38
2019-04-03T14:53:51.517Z,11.05
2019-04-03T14:56:24.291Z,11.90
2019-04-03T14:58:58.567Z,10.50
2019-04-03T15:01:31.891Z,10.48
2019-04-03T15:04:05.071Z,12.75
2019-04-03T15:06:38.238Z,11.03
2019-04-03T15:09:13.612Z,10.43
2019-04-03T15:11:45.977Z,11.88
2019-04-03T15:14:21.975Z,11.75
2019-04-03T15:16:53.430Z,12.30
2019-04-03T15:19:26.207Z,12.00
2019-04-03T15:22:01.682Z,11.83
2019-04-03T15:24:34.003Z,10.28
2019-04-03T15:27:06.882Z,10.35
2019-04-03T15:29:39.901Z,9.35
2019-04-03T15:32:13.109Z,11.95
2019-04-03T15:34:46.062Z,12.55
2019-04-03T15:37:18.887Z,11.57
2019-04-03T15:39:56.470Z,9.55
2019-04-03T15:42:26.329Z,11.43
2019-04-03T15:44:59.269Z,13.35
2019-04-03T15:47:37.497Z,12.85
2019-04-03T15:50:08.773Z,14.40
2019-04-03T15:52:43.566Z,9.85
2019-04-03T15:55:16.431Z,12.10
2019-04-03T15:57:51.729Z,10.45
2019-04-03T16:00:25.893Z,10.78
2019-04-03T16:02:59.125Z,12.28
2019-04-03T16:05:35.671Z,12.05
2019-04-03T16:08:06.970Z,11.10
2019-04-03T16:10:39.851Z,11.28
2019-04-03T16:13:15.566Z,10.38
2019-04-03T16:15:48.848Z,10.98
2019-04-03T16:18:22.813Z,11.10
2019-04-03T16:20:55.957Z,11.35
2019-04-03T16:23:29.039Z,9.85
2019-04-03T16:26:02.324Z,9.78
2019-04-03T16:28:35.766Z,10.78
2019-04-03T16:31:08.644Z,11.97
2019-04-03T16:33:41.491Z,14.00
2019-04-03T16:36:16.531Z,11.18
2019-04-03T16:38:48.862Z,12.50
2019-04-03T16:41:22.182Z,11.08
2019-04-03T16:43:55.504Z,12.25
2019-04-03T16:46:28.283Z,11.70
2019-04-03T16:49:01.055Z,11.00
2019-04-03T16:51:33.849Z,13.48
2019-04-03T16:54:10.416Z,11.65
2019-04-03T16:56:41.637Z,12.47
2019-04-03T16:59:14.780Z,12.65
2019-04-03T17:01:47.731Z,20.35
2019-04-03T17:04:26.852Z,13.18
2019-04-03T17:06:55.704Z,14.38
2019-04-03T17:09:31.376Z,19.62
2019-04-03T17:12:03.413Z,14.65
2019-04-03T17:14:36.472Z,11.90
2019-04-03T17:17:13.402Z,11.53
2019-04-03T17:19:44.047Z,15.95
2019-04-03T17:22:19.128Z,13.03
2019-04-03T17:24:55.729Z,14.73
2019-04-03T17:27:29.696Z,14.68
2019-04-03T17:30:01.215Z,14.40
2019-04-03T17:32:35.499Z,11.12
2019-04-03T17:35:08.857Z,14.83
2019-04-03T17:37:42.380Z,14.40
2019-04-03T17:40:16.250Z,13.60
2019-04-03T17:42:49.053Z,12.03
2019-04-03T17:45:21.866Z,17.40
2019-04-03T17:47:54.880Z,17.05
2019-04-03T17:50:29.586Z,15.72
2019-04-03T17:53:02.353Z,22.42
2019-04-03T17:55:35.321Z,15.58
2019-04-03T17:58:08.277Z,17.87
2019-04-03T18:00:41.067Z,17.62
2019-04-03T18:03:13.894Z,12.70
2019-04-03T18:05:47.034Z,15.93
2019-04-03T18:08:21.024Z,13.28
2019-04-03T18:10:53.868Z,14.80
2019-04-03T18:13:27.039Z,19.10
2019-04-03T18:15:59.926Z,20.68
2019-04-03T18:18:33.420Z,18.52
2019-04-03T18:21:06.954Z,14.68
2019-04-03T18:23:39.887Z,14.53
2019-04-03T18:26:12.759Z,15.40
2019-04-03T18:28:45.712Z,14.15
2019-04-03T18:31:18.608Z,19.80
2019-04-03T18:33:51.462Z,13.48
2019-04-03T18:36:27.302Z,15.05
2019-04-03T18:38:59.063Z,26.55
2019-04-03T18:41:32.012Z,15.60
2019-04-03T18:44:05.242Z,15.43
2019-04-03T18:46:38.072Z,16.60
2019-04-03T18:49:10.961Z,15.88
2019-04-03T18:51:43.976Z,16.02
2019-04-03T18:54:17.147Z,15.35
2019-04-03T18:56:50.178Z,12.20
2019-04-03T18:59:23.949Z,13.08
2019-04-03T19:01:57.970Z,16.73
2019-04-03T19:04:33.966Z,13.22
2019-04-03T19:07:06.815Z,16.67
2019-04-03T19:09:40.902Z,17.70
2019-04-03T19:12:15.620Z,13.72
2019-04-03T19:14:48.863Z,12.35
2019-04-03T19:17:22.953Z,16.00
2019-04-03T19:20:09.674Z,13.88
2019-04-03T19:22:30.966Z,13.32
2019-04-03T19:25:03.920Z,12.90
2019-04-03T19:27:36.903Z,15.43
2019-04-03T19:30:10.227Z,16.93
2019-04-03T19:32:43.962Z,15.90
2019-04-03T19:35:17.144Z,14.83
2019-04-03T19:37:50.157Z,13.50
2019-04-03T19:40:23.317Z,15.20
2019-04-03T19:42:56.331Z,16.37
2019-04-03T19:45:29.463Z,14.65
2019-04-03T19:48:02.591Z,16.73
2019-04-03T19:50:35.537Z,13.98
2019-04-03T19:53:08.686Z,15.00
2019-04-03T19:55:41.644Z,14.47
2019-04-03T19:58:15.797Z,13.72
2019-04-03T20:00:49.427Z,23.65
2019-04-03T20:03:23.395Z,16.77
2019-04-03T20:05:56.353Z,15.10
2019-04-03T20:08:30.523Z,14.53
2019-04-03T20:11:05.095Z,15.15
2019-04-03T20:13:39.834Z,15.65
2019-04-03T20:16:14.377Z,13.48
2019-04-03T20:18:47.320Z,16.20
2019-04-03T20:21:20.793Z,13.90
2019-04-03T20:23:54.732Z,15.05
2019-04-03T20:26:29.649Z,15.83
2019-04-03T20:29:04.448Z,13.68
2019-04-03T20:31:40.565Z,16.40
2019-04-03T20:34:13.082Z,15.83
2019-04-03T20:36:46.571Z,14.53
2019-04-03T20:39:19.383Z,15.38
2019-04-03T20:41:52.372Z,15.83
2019-04-03T20:44:25.278Z,17.37
2019-04-03T20:46:58.273Z,14.33
2019-04-03T20:49:31.096Z,17.32
2019-04-03T20:52:03.994Z,15.75
2019-04-03T20:54:36.873Z,17.15
2019-04-03T20:57:09.806Z,15.35
2019-04-03T20:59:43.097Z,17.02
2019-04-03T21:02:17.380Z,19.50
2019-04-03T21:04:50.354Z,15.15
2019-04-03T21:07:24.481Z,18.48
2019-04-03T21:10:00.637Z,18.65
2019-04-03T21:12:35.502Z,16.80
2019-04-03T21:15:09.486Z,14.90
2019-04-03T21:17:43.087Z,18.12
2019-04-03T21:20:16.247Z,16.80
2019-04-03T21:22:49.028Z,19.60
2019-04-03T21:25:21.940Z,20.32
2019-04-03T21:27:54.885Z,17.70
2019-04-03T21:30:27.652Z,22.07
2019-04-03T21:33:00.553Z,18.27
2019-04-03T21:35:35.202Z,18.25
2019-04-03T21:38:10.599Z,16.82
2019-04-03T21:40:42.453Z,18.10
2019-04-03T21:43:15.674Z,18.17
2019-04-03T21:45:48.578Z,16.85
2019-04-03T21:48:21.469Z,18.27
2019-04-03T21:50:54.231Z,17.23
2019-04-03T21:53:27.000Z,17.48
2019-04-03T21:56:01.822Z,16.55
2019-04-03T21:58:34.321Z,17.57
2019-04-03T22:01:35.701Z,16.62
2019-04-03T22:04:08.598Z,18.23
2019-04-03T22:06:41.393Z,16.02
2019-04-03T22:09:14.568Z,16.07
2019-04-03T22:11:47.502Z,16.95
2019-04-03T22:14:20.335Z,17.10
2019-04-03T22:16:53.088Z,16.65
2019-04-03T22:19:27.695Z,16.35
2019-04-03T22:22:01.074Z,16.35
2019-04-03T22:24:37.412Z,16.35
2019-04-03T22:27:11.306Z,16.15
2019-04-03T22:29:43.939Z,16.23
2019-04-03T22:32:16.731Z,17.82
2019-04-03T22:34:49.522Z,16.25
2019-04-03T22:37:22.319Z,15.95
2019-04-03T22:39:55.638Z,16.23
2019-04-03T22:42:28.474Z,15.40
2019-04-03T22:45:02.572Z,16.82
2019-04-03T22:47:36.735Z,17.73
2019-04-03T22:50:09.917Z,18.17
2019-04-03T22:52:42.756Z,16.35
2019-04-03T22:55:15.594Z,19.95
2019-04-03T22:57:50.394Z,17.23
2019-04-03T23:00:23.924Z,15.55
2019-04-03T23:02:57.541Z,18.37
2019-04-03T23:05:30.310Z,17.07
2019-04-03T23:08:03.333Z,16.50
2019-04-03T23:10:36.389Z,18.77
2019-04-03T23:13:09.392Z,19.05
2019-04-03T23:15:42.450Z,15.58
2019-04-03T23:18:15.980Z,17.32
2019-04-03T23:20:49.245Z,18.32
2019-04-03T23:23:22.130Z,17.90
2019-04-03T23:25:54.911Z,17.90
2019-04-03T23:28:30.207Z,16.62
2019-04-03T23:31:03.222Z,18.95
2019-04-03T23:33:36.344Z,19.25
2019-04-03T23:36:09.354Z,18.90
2019-04-03T23:38:42.164Z,16.73
2019-04-03T23:41:15.072Z,18.98
2019-04-03T23:43:47.879Z,16.87
2019-04-03T23:46:20.891Z,18.45
2019-04-03T23:48:53.773Z,18.65
2019-04-03T23:51:27.913Z,18.02
2019-04-03T23:54:02.643Z,19.85
2019-04-03T23:56:37.012Z,20.00
2019-04-03T23:59:12.685Z,19.42
